Warning: Javascript must be enabled to use all the features on this page!


Page Loading - Please Wait...

* We've detected you're using a mobile device. Find our Next Generation Station Page here.
Click to hideNews Bulletins

Peak Streamflow for the Nation

USGS 13348000 SOUTH FORK PALOUSE RIVER AT PULLMAN, WA

Whitman County, Washington
Hydrologic Unit Code 17060108
Latitude  46°43'57", Longitude 117°10'48" NAD27
Drainage area 132  square miles
Gage datum 2,329.72 feet above NAVD88
Output formats
Table
Graph
Tab-separated file
peakfq (watstore) format
Reselect output format
Water
Year
Date Gage
Height
(feet)
Stream-
flow
(cfs)
1934 1933-12-22 6.00 1,800
1935 1935-01-24 3.87 940
1936 1936-02-28 3.58 830
1937 1937-04-15 3.84 731
1938 1938-03-18 3.14 482
1939 1939-03-21 4.01 968
1940 1940-03-08 3.90 743
1941 1941-01-18 3.99 785
1942 1942-01-27 3.98 780
1948 1948-02-26 9.50 5,0007
1959 1959-01-24 6.50 1,860
1960 1960-02-07 3.84 511
1961 1961-02-21 4.15 885
1962 1962-03-25 3.82 734
1963 1963-02-03 6.91 2,160
1964 1964-03-18 3.87 655
1965 1964-12-23 7.11 2,610
1966 1966-01-07 2.99 298
1967 1967-01-28 3.38 438
1968 1967-12-25 4.68 1,060
1969 1969-01-07 5.25 1,400
1970 1970-01-24 4.37 965
1971 1971-01-16 4.77 1,220
1972 1972-01-21 9.46 4,570
1973 1973-01-13 6.00 1,990
1974 1974-01-15 6.34 2,280
1975 1975-01-18 4.84 1,340
1976 1976-01-15 4.92 1,390
1977 1977-01-18 2.19 110
1978 1977-12-13 4.21 948
1979 1979-02-13 8.25 3,740
1980 1980-02-13 4.42 1,090
1981 1981-02-14 3.81 756
2001 2001-06-27 2.25 85.0
2002 2002-03-12 4.85 902
2003 2003-01-31 4.81 940
2004 2004-02-18 4.63 730
2005 2005-03-28 2.71 128
2006 2006-01-18 4.43 661
2007 2007-01-03 4.62 813
2008 2008-03-01 4.35 635
2009 2009-01-08 6.05 1,700
2010 2010-01-05 5.00 974
2011 2011-01-16 5.75 1,470
2012 2012-03-26 6.96 2,490
2013 2013-01-31 3.07 226
2014 2014-02-12 4.26 673
2015 2015-01-18 3.83 500
2016 2016-03-22 4.46 805
2017 2017-03-10 7.03 2,520
2018 2017-12-30 6.12 1,700
2019 2019-04-09 7.02 2,510
2020 2020-02-07 4.75 874
2021 2021-01-13 4.44 796
?
  Peak Streamflow Qualification Codes.